sensor_id;sensor_type;location;lat;lon;timestamp;temperature;humidity
1329;DHT22;658;48.820;9.354;2023-05-07T00:02:12;25.40;51.60
1329;DHT22;658;48.820;9.354;2023-05-07T00:06:15;25.30;51.30
1329;DHT22;658;48.820;9.354;2023-05-07T00:10:16;25.40;51.40
1329;DHT22;658;48.820;9.354;2023-05-07T00:14:16;25.30;51.20
1329;DHT22;658;48.820;9.354;2023-05-07T00:18:17;25.30;51.30
1329;DHT22;658;48.820;9.354;2023-05-07T00:22:21;25.30;51.20
1329;DHT22;658;48.820;9.354;2023-05-07T00:26:22;25.30;51.20
1329;DHT22;658;48.820;9.354;2023-05-07T00:30:22;25.30;51.20
1329;DHT22;658;48.820;9.354;2023-05-07T00:34:23;25.20;51.40
1329;DHT22;658;48.820;9.354;2023-05-07T00:38:23;25.20;51.30
1329;DHT22;658;48.820;9.354;2023-05-07T00:42:24;25.20;51.10
1329;DHT22;658;48.820;9.354;2023-05-07T00:46:25;25.10;51.00
1329;DHT22;658;48.820;9.354;2023-05-07T00:50:28;25.10;50.90
1329;DHT22;658;48.820;9.354;2023-05-07T00:54:30;25.10;50.90
1329;DHT22;658;48.820;9.354;2023-05-07T00:58:31;25.10;50.90
1329;DHT22;658;48.820;9.354;2023-05-07T01:02:31;25.10;50.70
1329;DHT22;658;48.820;9.354;2023-05-07T01:06:33;25.10;50.70
1329;DHT22;658;48.820;9.354;2023-05-07T01:10:33;25.10;50.80
1329;DHT22;658;48.820;9.354;2023-05-07T01:14:34;25.10;50.80
1329;DHT22;658;48.820;9.354;2023-05-07T01:18:35;25.00;50.80
1329;DHT22;658;48.820;9.354;2023-05-07T01:22:39;25.00;50.70
1329;DHT22;658;48.820;9.354;2023-05-07T01:26:42;25.00;50.70
1329;DHT22;658;48.820;9.354;2023-05-07T01:30:46;25.00;50.60
1329;DHT22;658;48.820;9.354;2023-05-07T01:34:48;25.00;50.60
1329;DHT22;658;48.820;9.354;2023-05-07T01:38:50;25.00;50.60
1329;DHT22;658;48.820;9.354;2023-05-07T01:42:52;24.90;50.60
1329;DHT22;658;48.820;9.354;2023-05-07T01:46:57;25.00;50.70
1329;DHT22;658;48.820;9.354;2023-05-07T01:50:58;24.90;50.60
1329;DHT22;658;48.820;9.354;2023-05-07T01:54:59;24.90;50.60
1329;DHT22;658;48.820;9.354;2023-05-07T01:59:00;24.90;51.20
1329;DHT22;658;48.820;9.354;2023-05-07T02:03:00;24.90;50.60
1329;DHT22;658;48.820;9.354;2023-05-07T02:07:01;24.90;50.70
1329;DHT22;658;48.820;9.354;2023-05-07T02:11:02;24.90;50.60
1329;DHT22;658;48.820;9.354;2023-05-07T02:15:05;24.80;50.60
1329;DHT22;658;48.820;9.354;2023-05-07T02:19:06;24.90;50.60
1329;DHT22;658;48.820;9.354;2023-05-07T02:23:06;24.80;50.50
1329;DHT22;658;48.820;9.354;2023-05-07T02:27:07;24.80;50.60
1329;DHT22;658;48.820;9.354;2023-05-07T02:31:08;24.80;50.50
1329;DHT22;658;48.820;9.354;2023-05-07T02:35:08;24.80;50.50
1329;DHT22;658;48.820;9.354;2023-05-07T02:39:09;24.80;50.50
1329;DHT22;658;48.820;9.354;2023-05-07T02:43:10;24.80;50.40
1329;DHT22;658;48.820;9.354;2023-05-07T02:47:10;24.80;50.60
1329;DHT22;658;48.820;9.354;2023-05-07T02:51:13;24.70;50.40
1329;DHT22;658;48.820;9.354;2023-05-07T02:55:14;24.70;50.40
1329;DHT22;658;48.820;9.354;2023-05-07T02:59:14;24.70;50.40
1329;DHT22;658;48.820;9.354;2023-05-07T03:03:15;24.70;50.40
1329;DHT22;658;48.820;9.354;2023-05-07T03:07:15;24.70;50.40
1329;DHT22;658;48.820;9.354;2023-05-07T03:11:16;24.70;50.40
1329;DHT22;658;48.820;9.354;2023-05-07T03:15:17;24.70;50.50
1329;DHT22;658;48.820;9.354;2023-05-07T03:19:17;24.70;50.40
1329;DHT22;658;48.820;9.354;2023-05-07T03:23:18;24.60;50.30
1329;DHT22;658;48.820;9.354;2023-05-07T03:27:18;24.60;50.30
1329;DHT22;658;48.820;9.354;2023-05-07T03:31:19;24.60;50.30
1329;DHT22;658;48.820;9.354;2023-05-07T03:35:19;24.60;50.30
1329;DHT22;658;48.820;9.354;2023-05-07T03:39:20;24.60;50.30
1329;DHT22;658;48.820;9.354;2023-05-07T03:43:21;24.50;50.20
1329;DHT22;658;48.820;9.354;2023-05-07T03:47:21;24.50;50.30
1329;DHT22;658;48.820;9.354;2023-05-07T03:51:22;24.50;50.20
1329;DHT22;658;48.820;9.354;2023-05-07T03:55:22;24.50;50.20
1329;DHT22;658;48.820;9.354;2023-05-07T03:59:23;24.50;50.20
1329;DHT22;658;48.820;9.354;2023-05-07T04:03:26;24.50;50.20
1329;DHT22;658;48.820;9.354;2023-05-07T04:07:29;24.50;50.10
1329;DHT22;658;48.820;9.354;2023-05-07T04:11:31;24.50;50.20
1329;DHT22;658;48.820;9.354;2023-05-07T04:15:32;24.40;50.10
1329;DHT22;658;48.820;9.354;2023-05-07T04:19:35;24.40;50.10
1329;DHT22;658;48.820;9.354;2023-05-07T04:23:35;24.40;50.10
1329;DHT22;658;48.820;9.354;2023-05-07T04:27:36;24.40;50.00
1329;DHT22;658;48.820;9.354;2023-05-07T04:31:39;24.40;50.00
1329;DHT22;658;48.820;9.354;2023-05-07T04:35:40;24.40;50.00
1329;DHT22;658;48.820;9.354;2023-05-07T04:39:40;24.30;49.90
1329;DHT22;658;48.820;9.354;2023-05-07T04:43:41;24.30;50.10
1329;DHT22;658;48.820;9.354;2023-05-07T04:47:44;24.40;50.20
1329;DHT22;658;48.820;9.354;2023-05-07T04:51:44;24.40;50.10
1329;DHT22;658;48.820;9.354;2023-05-07T04:55:45;24.30;50.00
1329;DHT22;658;48.820;9.354;2023-05-07T04:59:46;24.30;50.10
1329;DHT22;658;48.820;9.354;2023-05-07T05:03:46;24.30;50.10
1329;DHT22;658;48.820;9.354;2023-05-07T05:07:47;24.30;50.10
1329;DHT22;658;48.820;9.354;2023-05-07T05:11:48;24.30;50.10
1329;DHT22;658;48.820;9.354;2023-05-07T05:15:48;24.30;50.10
1329;DHT22;658;48.820;9.354;2023-05-07T05:19:50;24.30;50.10
1329;DHT22;658;48.820;9.354;2023-05-07T05:23:51;24.30;50.20
1329;DHT22;658;48.820;9.354;2023-05-07T05:27:52;24.30;50.10
1329;DHT22;658;48.820;9.354;2023-05-07T05:31:52;24.30;50.10
1329;DHT22;658;48.820;9.354;2023-05-07T05:35:56;24.30;50.10
1329;DHT22;658;48.820;9.354;2023-05-07T05:39:57;24.30;50.00
1329;DHT22;658;48.820;9.354;2023-05-07T05:43:57;24.30;50.00
1329;DHT22;658;48.820;9.354;2023-05-07T05:47:59;24.30;50.00
1329;DHT22;658;48.820;9.354;2023-05-07T05:52:03;24.30;49.90
1329;DHT22;658;48.820;9.354;2023-05-07T05:56:04;24.30;49.90
1329;DHT22;658;48.820;9.354;2023-05-07T06:00:06;24.30;49.80
1329;DHT22;658;48.820;9.354;2023-05-07T06:04:07;24.40;49.90
1329;DHT22;658;48.820;9.354;2023-05-07T06:08:07;24.40;49.80
1329;DHT22;658;48.820;9.354;2023-05-07T06:12:08;24.40;49.80
1329;DHT22;658;48.820;9.354;2023-05-07T06:16:09;24.40;49.70
1329;DHT22;658;48.820;9.354;2023-05-07T06:20:09;24.40;49.60
1329;DHT22;658;48.820;9.354;2023-05-07T06:24:10;24.50;49.60
1329;DHT22;658;48.820;9.354;2023-05-07T06:28:11;24.50;49.60
1329;DHT22;658;48.820;9.354;2023-05-07T06:32:12;24.40;49.50
1329;DHT22;658;48.820;9.354;2023-05-07T06:36:13;24.50;49.50
1329;DHT22;658;48.820;9.354;2023-05-07T06:40:14;24.50;49.40
1329;DHT22;658;48.820;9.354;2023-05-07T06:44:14;24.50;49.40
1329;DHT22;658;48.820;9.354;2023-05-07T06:48:15;24.50;49.40
1329;DHT22;658;48.820;9.354;2023-05-07T06:52:16;24.50;49.40
1329;DHT22;658;48.820;9.354;2023-05-07T06:56:16;24.50;49.30
1329;DHT22;658;48.820;9.354;2023-05-07T07:00:19;24.50;49.30
1329;DHT22;658;48.820;9.354;2023-05-07T07:04:20;24.50;49.20
1329;DHT22;658;48.820;9.354;2023-05-07T07:08:23;24.50;49.20
1329;DHT22;658;48.820;9.354;2023-05-07T07:12:23;24.50;49.20
1329;DHT22;658;48.820;9.354;2023-05-07T07:16:26;24.60;49.20
1329;DHT22;658;48.820;9.354;2023-05-07T07:20:27;24.60;49.20
1329;DHT22;658;48.820;9.354;2023-05-07T07:24:27;24.60;48.90
1329;DHT22;658;48.820;9.354;2023-05-07T07:28:28;24.70;49.20
1329;DHT22;658;48.820;9.354;2023-05-07T07:32:31;24.60;49.00
1329;DHT22;658;48.820;9.354;2023-05-07T07:36:34;24.70;49.00
1329;DHT22;658;48.820;9.354;2023-05-07T07:40:35;24.70;48.90
1329;DHT22;658;48.820;9.354;2023-05-07T07:44:35;24.70;48.80
1329;DHT22;658;48.820;9.354;2023-05-07T07:48:36;24.80;48.80
1329;DHT22;658;48.820;9.354;2023-05-07T07:52:37;24.80;48.70
1329;DHT22;658;48.820;9.354;2023-05-07T07:56:38;24.80;48.70
1329;DHT22;658;48.820;9.354;2023-05-07T08:00:38;24.80;48.60
1329;DHT22;658;48.820;9.354;2023-05-07T08:04:39;24.90;48.70
1329;DHT22;658;48.820;9.354;2023-05-07T08:08:42;24.90;48.60
1329;DHT22;658;48.820;9.354;2023-05-07T08:12:42;24.90;48.50
1329;DHT22;658;48.820;9.354;2023-05-07T08:16:43;24.90;48.50
1329;DHT22;658;48.820;9.354;2023-05-07T08:20:43;24.90;48.40
1329;DHT22;658;48.820;9.354;2023-05-07T08:24:44;25.00;48.50
1329;DHT22;658;48.820;9.354;2023-05-07T08:28:47;25.00;48.50
1329;DHT22;658;48.820;9.354;2023-05-07T08:32:48;25.00;48.40
1329;DHT22;658;48.820;9.354;2023-05-07T08:36:48;25.00;48.40
1329;DHT22;658;48.820;9.354;2023-05-07T08:40:49;25.00;48.40
1329;DHT22;658;48.820;9.354;2023-05-07T08:44:51;25.00;48.40
1329;DHT22;658;48.820;9.354;2023-05-07T08:48:53;25.00;48.50
1329;DHT22;658;48.820;9.354;2023-05-07T08:52:54;25.10;48.50
1329;DHT22;658;48.820;9.354;2023-05-07T08:56:55;25.10;48.50
1329;DHT22;658;48.820;9.354;2023-05-07T09:00:55;25.10;48.50
1329;DHT22;658;48.820;9.354;2023-05-07T09:04:56;25.10;48.50
1329;DHT22;658;48.820;9.354;2023-05-07T09:08:59;25.20;48.70
1329;DHT22;658;48.820;9.354;2023-05-07T09:13:02;25.20;48.60
1329;DHT22;658;48.820;9.354;2023-05-07T09:17:03;25.30;48.60
1329;DHT22;658;48.820;9.354;2023-05-07T09:21:03;25.30;48.50
1329;DHT22;658;48.820;9.354;2023-05-07T09:25:06;25.30;48.50
1329;DHT22;658;48.820;9.354;2023-05-07T09:29:08;25.30;48.60
1329;DHT22;658;48.820;9.354;2023-05-07T09:33:10;25.40;48.50
1329;DHT22;658;48.820;9.354;2023-05-07T09:37:12;25.40;48.40
1329;DHT22;658;48.820;9.354;2023-05-07T09:41:14;25.40;48.30
1329;DHT22;658;48.820;9.354;2023-05-07T09:45:22;25.40;48.40
1329;DHT22;658;48.820;9.354;2023-05-07T09:49:25;25.50;48.40
1329;DHT22;658;48.820;9.354;2023-05-07T09:53:30;25.50;48.60
1329;DHT22;658;48.820;9.354;2023-05-07T09:57:32;25.50;48.60
1329;DHT22;658;48.820;9.354;2023-05-07T10:01:36;25.60;48.50
1329;DHT22;658;48.820;9.354;2023-05-07T10:05:37;25.60;48.50
1329;DHT22;658;48.820;9.354;2023-05-07T10:09:38;25.50;47.90
1329;DHT22;658;48.820;9.354;2023-05-07T10:13:43;25.50;48.00
1329;DHT22;658;48.820;9.354;2023-05-07T10:17:44;25.50;48.30
1329;DHT22;658;48.820;9.354;2023-05-07T10:21:55;25.60;48.20
1329;DHT22;658;48.820;9.354;2023-05-07T10:26:01;25.60;48.00
1329;DHT22;658;48.820;9.354;2023-05-07T10:30:22;25.70;48.20
1329;DHT22;658;48.820;9.354;2023-05-07T10:34:37;25.70;48.40
1329;DHT22;658;48.820;9.354;2023-05-07T10:38:39;25.80;48.70
1329;DHT22;658;48.820;9.354;2023-05-07T10:42:58;25.90;48.20
1329;DHT22;658;48.820;9.354;2023-05-07T10:47:09;25.90;48.40
1329;DHT22;658;48.820;9.354;2023-05-07T10:51:21;26.00;48.40
1329;DHT22;658;48.820;9.354;2023-05-07T10:55:22;26.10;48.40
1329;DHT22;658;48.820;9.354;2023-05-07T10:59:33;26.20;48.40
1329;DHT22;658;48.820;9.354;2023-05-07T11:03:34;26.30;48.20
1329;DHT22;658;48.820;9.354;2023-05-07T11:07:35;26.30;48.00
1329;DHT22;658;48.820;9.354;2023-05-07T11:11:49;26.40;47.70
1329;DHT22;658;48.820;9.354;2023-05-07T11:15:51;26.40;47.40
1329;DHT22;658;48.820;9.354;2023-05-07T11:19:53;26.50;47.40
1329;DHT22;658;48.820;9.354;2023-05-07T11:23:55;26.60;47.70
1329;DHT22;658;48.820;9.354;2023-05-07T11:28:07;26.60;47.20
1329;DHT22;658;48.820;9.354;2023-05-07T11:32:10;26.60;46.80
1329;DHT22;658;48.820;9.354;2023-05-07T11:36:12;26.60;47.00
1329;DHT22;658;48.820;9.354;2023-05-07T11:40:13;26.60;47.00
1329;DHT22;658;48.820;9.354;2023-05-07T11:44:16;26.60;46.60
1329;DHT22;658;48.820;9.354;2023-05-07T11:48:17;26.60;46.90
1329;DHT22;658;48.820;9.354;2023-05-07T11:52:18;26.60;46.50
1329;DHT22;658;48.820;9.354;2023-05-07T11:56:19;26.60;46.60
1329;DHT22;658;48.820;9.354;2023-05-07T12:00:20;26.60;46.80
1329;DHT22;658;48.820;9.354;2023-05-07T12:04:21;26.60;46.70
1329;DHT22;658;48.820;9.354;2023-05-07T12:08:22;26.60;46.70
1329;DHT22;658;48.820;9.354;2023-05-07T12:12:22;26.60;46.80
1329;DHT22;658;48.820;9.354;2023-05-07T12:16:27;26.60;47.10
1329;DHT22;658;48.820;9.354;2023-05-07T12:20:28;26.60;47.10
1329;DHT22;658;48.820;9.354;2023-05-07T12:24:29;26.60;47.00
1329;DHT22;658;48.820;9.354;2023-05-07T12:28:29;26.60;47.20
1329;DHT22;658;48.820;9.354;2023-05-07T12:32:33;26.60;47.20
1329;DHT22;658;48.820;9.354;2023-05-07T12:36:40;26.60;47.20
1329;DHT22;658;48.820;9.354;2023-05-07T12:40:42;26.50;47.00
1329;DHT22;658;48.820;9.354;2023-05-07T12:44:46;26.50;47.00
1329;DHT22;658;48.820;9.354;2023-05-07T12:48:48;26.50;47.10
1329;DHT22;658;48.820;9.354;2023-05-07T12:52:49;26.40;47.20
1329;DHT22;658;48.820;9.354;2023-05-07T12:56:52;26.40;47.20
1329;DHT22;658;48.820;9.354;2023-05-07T13:01:05;26.40;47.30
1329;DHT22;658;48.820;9.354;2023-05-07T13:05:06;26.30;47.30
1329;DHT22;658;48.820;9.354;2023-05-07T13:09:07;26.30;47.40
1329;DHT22;658;48.820;9.354;2023-05-07T13:13:08;26.30;47.40
1329;DHT22;658;48.820;9.354;2023-05-07T13:17:08;26.20;47.40
1329;DHT22;658;48.820;9.354;2023-05-07T13:21:09;26.20;47.40
1329;DHT22;658;48.820;9.354;2023-05-07T13:25:10;26.20;47.50
1329;DHT22;658;48.820;9.354;2023-05-07T13:29:11;26.10;47.70
1329;DHT22;658;48.820;9.354;2023-05-07T13:33:14;26.10;47.80
1329;DHT22;658;48.820;9.354;2023-05-07T13:37:15;26.00;47.90
1329;DHT22;658;48.820;9.354;2023-05-07T13:41:16;26.00;48.00
1329;DHT22;658;48.820;9.354;2023-05-07T13:45:18;26.00;48.20
1329;DHT22;658;48.820;9.354;2023-05-07T13:49:18;25.90;48.20
1329;DHT22;658;48.820;9.354;2023-05-07T13:53:19;25.90;48.30
1329;DHT22;658;48.820;9.354;2023-05-07T13:57:20;25.90;48.40
1329;DHT22;658;48.820;9.354;2023-05-07T14:01:20;25.80;48.50
1329;DHT22;658;48.820;9.354;2023-05-07T14:05:21;25.80;48.60
1329;DHT22;658;48.820;9.354;2023-05-07T14:09:23;25.80;48.70
1329;DHT22;658;48.820;9.354;2023-05-07T14:13:24;25.80;48.80
1329;DHT22;658;48.820;9.354;2023-05-07T14:17:26;25.70;48.80
1329;DHT22;658;48.820;9.354;2023-05-07T14:21:27;25.70;48.90
1329;DHT22;658;48.820;9.354;2023-05-07T14:25:27;25.70;49.00
1329;DHT22;658;48.820;9.354;2023-05-07T14:29:28;25.70;49.00
1329;DHT22;658;48.820;9.354;2023-05-07T14:33:29;25.60;49.10
1329;DHT22;658;48.820;9.354;2023-05-07T14:37:29;25.60;49.20
1329;DHT22;658;48.820;9.354;2023-05-07T14:41:30;25.60;49.20
1329;DHT22;658;48.820;9.354;2023-05-07T14:45:32;25.60;49.20
1329;DHT22;658;48.820;9.354;2023-05-07T14:49:33;25.60;49.30
1329;DHT22;658;48.820;9.354;2023-05-07T14:53:33;25.60;49.30
1329;DHT22;658;48.820;9.354;2023-05-07T14:57:34;25.60;49.30
1329;DHT22;658;48.820;9.354;2023-05-07T15:01:35;25.60;49.40
1329;DHT22;658;48.820;9.354;2023-05-07T15:05:37;25.60;49.40
1329;DHT22;658;48.820;9.354;2023-05-07T15:09:37;25.60;49.50
1329;DHT22;658;48.820;9.354;2023-05-07T15:13:38;25.50;49.50
1329;DHT22;658;48.820;9.354;2023-05-07T15:17:39;25.50;49.60
1329;DHT22;658;48.820;9.354;2023-05-07T15:21:39;25.50;49.50
1329;DHT22;658;48.820;9.354;2023-05-07T15:25:40;25.50;49.60
1329;DHT22;658;48.820;9.354;2023-05-07T15:29:43;25.50;49.60
1329;DHT22;658;48.820;9.354;2023-05-07T15:33:43;25.50;49.60
1329;DHT22;658;48.820;9.354;2023-05-07T15:37:47;25.50;49.60
1329;DHT22;658;48.820;9.354;2023-05-07T15:41:50;25.50;49.60
1329;DHT22;658;48.820;9.354;2023-05-07T15:45:51;25.50;49.50
1329;DHT22;658;48.820;9.354;2023-05-07T15:49:51;25.50;49.50
1329;DHT22;658;48.820;9.354;2023-05-07T15:53:52;25.50;49.40
1329;DHT22;658;48.820;9.354;2023-05-07T15:57:55;25.50;49.40
1329;DHT22;658;48.820;9.354;2023-05-07T16:01:56;25.50;49.40
1329;DHT22;658;48.820;9.354;2023-05-07T16:05:57;25.50;49.40
1329;DHT22;658;48.820;9.354;2023-05-07T16:10:00;25.40;49.60
1329;DHT22;658;48.820;9.354;2023-05-07T16:14:00;25.40;49.70
1329;DHT22;658;48.820;9.354;2023-05-07T16:18:01;25.40;49.70
1329;DHT22;658;48.820;9.354;2023-05-07T16:22:01;25.50;49.90
1329;DHT22;658;48.820;9.354;2023-05-07T16:26:02;25.50;49.90
1329;DHT22;658;48.820;9.354;2023-05-07T16:30:05;25.50;50.10
1329;DHT22;658;48.820;9.354;2023-05-07T16:34:05;25.50;50.20
1329;DHT22;658;48.820;9.354;2023-05-07T16:38:06;25.60;50.20
1329;DHT22;658;48.820;9.354;2023-05-07T16:42:10;25.60;50.20
1329;DHT22;658;48.820;9.354;2023-05-07T16:46:11;25.60;50.00
1329;DHT22;658;48.820;9.354;2023-05-07T16:50:11;25.60;49.90
1329;DHT22;658;48.820;9.354;2023-05-07T16:54:14;25.60;49.80
1329;DHT22;658;48.820;9.354;2023-05-07T16:58:17;25.60;49.90
1329;DHT22;658;48.820;9.354;2023-05-07T17:02:18;25.60;50.20
1329;DHT22;658;48.820;9.354;2023-05-07T17:06:19;25.50;50.20
1329;DHT22;658;48.820;9.354;2023-05-07T17:10:19;25.50;50.40
1329;DHT22;658;48.820;9.354;2023-05-07T17:14:23;25.50;50.20
1329;DHT22;658;48.820;9.354;2023-05-07T17:18:23;25.50;50.10
1329;DHT22;658;48.820;9.354;2023-05-07T17:22:26;25.50;50.00
1329;DHT22;658;48.820;9.354;2023-05-07T17:26:27;25.50;50.10
1329;DHT22;658;48.820;9.354;2023-05-07T17:30:27;25.50;50.10
1329;DHT22;658;48.820;9.354;2023-05-07T17:34:30;25.50;50.10
1329;DHT22;658;48.820;9.354;2023-05-07T17:38:31;25.40;50.00
1329;DHT22;658;48.820;9.354;2023-05-07T17:42:32;25.40;50.10
1329;DHT22;658;48.820;9.354;2023-05-07T17:46:32;25.40;50.10
1329;DHT22;658;48.820;9.354;2023-05-07T17:50:33;25.40;50.10
1329;DHT22;658;48.820;9.354;2023-05-07T17:54:34;25.30;50.10
1329;DHT22;658;48.820;9.354;2023-05-07T17:58:34;25.30;50.20
1329;DHT22;658;48.820;9.354;2023-05-07T18:02:38;25.30;50.20
1329;DHT22;658;48.820;9.354;2023-05-07T18:06:39;25.30;50.30
1329;DHT22;658;48.820;9.354;2023-05-07T18:10:43;25.30;50.30
1329;DHT22;658;48.820;9.354;2023-05-07T18:14:44;25.20;50.30
1329;DHT22;658;48.820;9.354;2023-05-07T18:18:46;25.20;50.30
1329;DHT22;658;48.820;9.354;2023-05-07T18:22:49;25.20;50.40
1329;DHT22;658;48.820;9.354;2023-05-07T18:26:50;25.10;50.40
1329;DHT22;658;48.820;9.354;2023-05-07T18:30:51;25.20;50.50
1329;DHT22;658;48.820;9.354;2023-05-07T18:34:52;25.10;50.40
1329;DHT22;658;48.820;9.354;2023-05-07T18:38:56;25.10;50.50
1329;DHT22;658;48.820;9.354;2023-05-07T18:42:56;25.10;50.50
1329;DHT22;658;48.820;9.354;2023-05-07T18:46:57;25.00;50.50
1329;DHT22;658;48.820;9.354;2023-05-07T18:50:58;25.00;50.50
1329;DHT22;658;48.820;9.354;2023-05-07T18:54:58;25.00;50.50
1329;DHT22;658;48.820;9.354;2023-05-07T18:58:59;25.00;50.50
1329;DHT22;658;48.820;9.354;2023-05-07T19:03:00;25.00;50.60
1329;DHT22;658;48.820;9.354;2023-05-07T19:07:00;25.00;50.60
1329;DHT22;658;48.820;9.354;2023-05-07T19:11:01;24.90;50.60
1329;DHT22;658;48.820;9.354;2023-05-07T19:15:03;24.90;50.60
1329;DHT22;658;48.820;9.354;2023-05-07T19:19:03;24.90;50.60
1329;DHT22;658;48.820;9.354;2023-05-07T19:23:04;24.90;50.70
1329;DHT22;658;48.820;9.354;2023-05-07T19:27:08;24.90;50.70
1329;DHT22;658;48.820;9.354;2023-05-07T19:31:17;24.90;50.70
1329;DHT22;658;48.820;9.354;2023-05-07T19:35:18;24.90;50.70
1329;DHT22;658;48.820;9.354;2023-05-07T19:39:18;24.90;50.80
1329;DHT22;658;48.820;9.354;2023-05-07T19:43:19;24.80;50.70
1329;DHT22;658;48.820;9.354;2023-05-07T19:47:20;24.80;50.70
1329;DHT22;658;48.820;9.354;2023-05-07T19:51:23;24.80;50.70
1329;DHT22;658;48.820;9.354;2023-05-07T19:55:24;24.80;50.80
1329;DHT22;658;48.820;9.354;2023-05-07T19:59:24;24.80;50.80
1329;DHT22;658;48.820;9.354;2023-05-07T20:03:25;24.80;51.40
1329;DHT22;658;48.820;9.354;2023-05-07T20:07:26;24.80;50.80
1329;DHT22;658;48.820;9.354;2023-05-07T20:11:26;24.80;50.80
1329;DHT22;658;48.820;9.354;2023-05-07T20:15:27;24.80;50.80
1329;DHT22;658;48.820;9.354;2023-05-07T20:19:28;24.70;50.80
1329;DHT22;658;48.820;9.354;2023-05-07T20:23:29;24.70;50.80
1329;DHT22;658;48.820;9.354;2023-05-07T20:27:29;24.80;50.90
1329;DHT22;658;48.820;9.354;2023-05-07T20:31:33;24.70;50.80
1329;DHT22;658;48.820;9.354;2023-05-07T20:35:34;24.70;50.80
1329;DHT22;658;48.820;9.354;2023-05-07T20:39:35;24.70;50.90
1329;DHT22;658;48.820;9.354;2023-05-07T20:43:35;24.70;50.90
1329;DHT22;658;48.820;9.354;2023-05-07T20:47:37;24.60;50.90
1329;DHT22;658;48.820;9.354;2023-05-07T20:51:37;24.60;50.90
1329;DHT22;658;48.820;9.354;2023-05-07T20:55:40;24.60;50.90
1329;DHT22;658;48.820;9.354;2023-05-07T20:59:42;24.60;50.90
1329;DHT22;658;48.820;9.354;2023-05-07T21:03:42;24.60;50.90
1329;DHT22;658;48.820;9.354;2023-05-07T21:07:44;24.60;51.10
1329;DHT22;658;48.820;9.354;2023-05-07T21:11:45;24.60;51.00
1329;DHT22;658;48.820;9.354;2023-05-07T21:15:47;24.60;51.20
1329;DHT22;658;48.820;9.354;2023-05-07T21:19:48;24.60;51.20
1329;DHT22;658;48.820;9.354;2023-05-07T21:23:49;24.60;51.30
1329;DHT22;658;48.820;9.354;2023-05-07T21:27:49;24.60;51.30
1329;DHT22;658;48.820;9.354;2023-05-07T21:31:50;24.60;51.30
1329;DHT22;658;48.820;9.354;2023-05-07T21:35:51;24.60;51.30
1329;DHT22;658;48.820;9.354;2023-05-07T21:39:51;24.60;51.30
1329;DHT22;658;48.820;9.354;2023-05-07T21:43:52;24.50;51.20
1329;DHT22;658;48.820;9.354;2023-05-07T21:47:54;24.50;51.20
1329;DHT22;658;48.820;9.354;2023-05-07T21:51:56;24.60;51.30
1329;DHT22;658;48.820;9.354;2023-05-07T21:55:57;24.50;51.20
1329;DHT22;658;48.820;9.354;2023-05-07T22:00:03;24.50;51.20
1329;DHT22;658;48.820;9.354;2023-05-07T22:04:04;24.50;51.60
1329;DHT22;658;48.820;9.354;2023-05-07T22:08:04;24.60;51.30
1329;DHT22;658;48.820;9.354;2023-05-07T22:12:05;24.60;51.20
1329;DHT22;658;48.820;9.354;2023-05-07T22:16:05;24.60;51.30
1329;DHT22;658;48.820;9.354;2023-05-07T22:20:07;24.50;51.30
1329;DHT22;658;48.820;9.354;2023-05-07T22:24:07;24.50;51.30
1329;DHT22;658;48.820;9.354;2023-05-07T22:28:08;24.50;51.30
1329;DHT22;658;48.820;9.354;2023-05-07T22:32:09;24.50;51.30
1329;DHT22;658;48.820;9.354;2023-05-07T22:36:09;24.50;51.30
1329;DHT22;658;48.820;9.354;2023-05-07T22:40:10;24.50;51.30
1329;DHT22;658;48.820;9.354;2023-05-07T22:44:11;24.50;51.30
1329;DHT22;658;48.820;9.354;2023-05-07T22:48:12;24.40;51.20
1329;DHT22;658;48.820;9.354;2023-05-07T22:52:12;24.50;51.30
1329;DHT22;658;48.820;9.354;2023-05-07T22:56:15;24.50;51.30
1329;DHT22;658;48.820;9.354;2023-05-07T23:00:16;24.40;51.20
1329;DHT22;658;48.820;9.354;2023-05-07T23:04:17;24.50;51.30
1329;DHT22;658;48.820;9.354;2023-05-07T23:08:18;24.40;51.30
1329;DHT22;658;48.820;9.354;2023-05-07T23:12:18;24.40;51.30
1329;DHT22;658;48.820;9.354;2023-05-07T23:16:19;24.40;51.30
1329;DHT22;658;48.820;9.354;2023-05-07T23:20:19;24.40;51.20
1329;DHT22;658;48.820;9.354;2023-05-07T23:24:22;24.40;51.30
1329;DHT22;658;48.820;9.354;2023-05-07T23:28:23;24.40;51.20
1329;DHT22;658;48.820;9.354;2023-05-07T23:32:26;24.40;51.20
1329;DHT22;658;48.820;9.354;2023-05-07T23:36:26;24.40;51.20
1329;DHT22;658;48.820;9.354;2023-05-07T23:40:27;24.40;51.30
1329;DHT22;658;48.820;9.354;2023-05-07T23:44:30;24.30;51.20
1329;DHT22;658;48.820;9.354;2023-05-07T23:48:31;24.30;51.30
1329;DHT22;658;48.820;9.354;2023-05-07T23:52:31;24.30;51.20
1329;DHT22;658;48.820;9.354;2023-05-07T23:56:32;24.30;51.20
